Accueil
METAR-TAF:

METAR-TAF

Aéroports :

Seyresse

Dax, France

latitude: 43-41N, longitude: 001-04W, altitude: 32 m

Observation

Le bulletin a été fait il y a 15 minutes, à 02:30 UTC
Vent 4 kt de nord/nord-ouest, variant entre nord-ouest et nord
Température 16°C
Humidité 88%
Pression 1021 hPa
Visibilité: 9000 m

METAR: LFBY 200230Z AUTO 34004KT 310V010 9000 // NSC 16/14 Q1021

Heure: 04:45 (02:45 UTC)


TAF: absent

Observations et prévisions météorologiques de plus de 4000 aéroports (messages METAR et TAF).

Les stations disponibles sont représentées par des disques jaunes et rouges sur la carte.

Passer la souris dessus pour voir le nom de la station.

Cliquer dessus pour voir les observations et prévisions météorologiques.

Pour changer de carte: cliquez sur les boutons verts avec une croix noire pour zoomer, sur le bouton vert avec un tiret pour effectuer un zoom arrière, ou sur les flèches vertes pour les cartes adjacentes.


METAR-TAF: